Time;durP1;ratioP1;P1;durP2;ratioP2;P2;SDS_P1;SDS_P2;PMS_P1;PMS_P2;Temp;Humidity;BMP_temperature;BMP_pressure;BME280_temperature;BME280_humidity;BME280_pressure;Samples;Min_cycle;Max_cycle;Signal;HPM_P1;HPM_P2
2021/10/07 00:00:54;;;;;;;11.20;4.25;;;;;;;;;;5111393;27;20483;-68
2021/10/07 00:06:09;;;;;;;10.60;4.55;;;;;;;;;;5112097;27;20516;-66
2021/10/07 00:08:35;;;;;;;8.10;4.28;;;;;;;;;;5110892;28;20562;-68
2021/10/07 00:17:04;;;;;;;10.52;4.70;;;;;;;;;;5111529;27;20396;-69
2021/10/07 00:19:31;;;;;;;11.10;4.68;;;;;;;;;;5110083;28;20031;-69
2021/10/07 00:24:24;;;;;;;7.40;4.03;;;;;;;;;;5111536;27;20524;-66
2021/10/07 00:26:50;;;;;;;7.22;4.07;;;;;;;;;;5109979;28;20031;-66
2021/10/07 00:30:02;;;;;;;11.90;4.68;;;;;;;;;;5111141;27;20434;-69
2021/10/07 00:35:01;;;;;;;7.05;3.72;;;;;;;;;;5111313;27;20309;-67
2021/10/07 00:39:02;;;;;;;7.07;3.70;;;;;;;;;;5109529;28;20446;-68
2021/10/07 00:43:38;;;;;;;7.30;3.35;;;;;;;;;;5070628;28;20407;-66
2021/10/07 00:46:04;;;;;;;9.18;4.03;;;;;;;;;;5070682;28;20404;-66
2021/10/07 00:48:31;;;;;;;8.70;3.95;;;;;;;;;;5070531;28;20432;-66
2021/10/07 00:50:57;;;;;;;11.73;4.50;;;;;;;;;;5070241;28;20028;-66
2021/10/07 00:53:23;;;;;;;6.97;4.15;;;;;;;;;;5070576;28;20502;-69
2021/10/07 00:57:53;;;;;;;7.00;3.85;;;;;;;;;;5070568;28;20903;-68
2021/10/07 01:00:39;;;;;;;14.45;4.43;;;;;;;;;;5071545;28;20396;-66
2021/10/07 01:03:05;;;;;;;10.23;4.35;;;;;;;;;;5070659;28;20079;-68
2021/10/07 01:05:32;;;;;;;7.80;4.10;;;;;;;;;;5070260;28;20029;-66
2021/10/07 01:10:11;;;;;;;11.00;5.22;;;;;;;;;;5071307;28;20403;-66
2021/10/07 01:13:20;;;;;;;8.27;4.20;;;;;;;;;;5071035;28;20433;-69
2021/10/07 01:15:46;;;;;;;9.13;4.38;;;;;;;;;;5071012;28;20032;-66
2021/10/07 01:20:00;;;;;;;10.40;4.10;;;;;;;;;;5111559;27;20512;-66
2021/10/07 01:23:31;;;;;;;9.90;3.97;;;;;;;;;;5111520;27;20879;-66
2021/10/07 01:25:57;;;;;;;7.78;3.63;;;;;;;;;;5110923;28;20057;-66
2021/10/07 01:31:29;;;;;;;7.30;3.65;;;;;;;;;;5071301;28;20404;-69
2021/10/07 01:36:46;;;;;;;7.30;3.55;;;;;;;;;;5112092;27;20505;-67
2021/10/07 01:41:09;;;;;;;12.77;4.63;;;;;;;;;;5111446;27;20892;-69
2021/10/07 01:43:35;;;;;;;10.95;4.95;;;;;;;;;;5127399;28;20031;-67
2021/10/07 01:47:48;;;;;;;11.00;4.38;;;;;;;;;;5097882;27;1629749;-66
2021/10/07 01:52:07;;;;;;;9.23;3.72;;;;;;;;;;5112025;27;20401;-69
2021/10/07 01:54:33;;;;;;;9.32;4.35;;;;;;;;;;5110983;28;20020;-66
2021/10/07 01:56:59;;;;;;;6.43;3.55;;;;;;;;;;5109946;28;20425;-69
2021/10/07 01:59:25;;;;;;;8.63;3.85;;;;;;;;;;5111425;28;20020;-69
2021/10/07 02:01:51;;;;;;;9.95;3.72;;;;;;;;;;5110735;28;20551;-66
2021/10/07 02:04:18;;;;;;;7.82;3.83;;;;;;;;;;5109809;28;20028;-66
2021/10/07 02:07:44;;;;;;;10.70;3.53;;;;;;;;;;5111421;27;20392;-66
2021/10/07 02:10:17;;;;;;;8.88;3.80;;;;;;;;;;5111265;28;20484;-66
2021/10/07 02:14:25;;;;;;;5.90;2.85;;;;;;;;;;5070698;28;20391;-67
2021/10/07 02:16:51;;;;;;;6.07;3.00;;;;;;;;;;5070764;28;20035;-66
2021/10/07 02:19:46;;;;;;;7.05;3.15;;;;;;;;;;5111736;27;20462;-70
2021/10/07 02:22:13;;;;;;;6.50;3.15;;;;;;;;;;5110986;28;20437;-66
2021/10/07 02:32:13;;;;;;;7.75;3.22;;;;;;;;;;5111674;27;20381;-67
2021/10/07 02:34:59;;;;;;;5.88;2.55;;;;;;;;;;5111324;27;20928;-67
2021/10/07 02:37:25;;;;;;;5.75;2.75;;;;;;;;;;5127044;28;20039;-67
2021/10/07 02:40:13;;;;;;;7.00;2.70;;;;;;;;;;5112070;27;20372;-67
2021/10/07 02:42:40;;;;;;;7.53;3.20;;;;;;;;;;5109656;28;20028;-66
2021/10/07 02:46:43;;;;;;;5.13;2.28;;;;;;;;;;5071255;28;20449;-66
2021/10/07 02:49:09;;;;;;;8.35;2.88;;;;;;;;;;5069006;28;20032;-66
2021/10/07 02:51:35;;;;;;;4.53;2.53;;;;;;;;;;5070881;28;20112;-66
2021/10/07 02:54:02;;;;;;;6.13;2.75;;;;;;;;;;5070654;28;20032;-67
2021/10/07 02:56:28;;;;;;;5.47;2.55;;;;;;;;;;5070171;28;20512;-67
2021/10/07 02:59:55;;;;;;;7.10;2.92;;;;;;;;;;5111426;27;20404;-66
2021/10/07 03:02:21;;;;;;;5.38;2.65;;;;;;;;;;5111226;28;20028;-66
2021/10/07 03:04:52;;;;;;;5.65;2.80;;;;;;;;;;5110818;28;20020;-68
2021/10/07 03:07:18;;;;;;;8.07;3.08;;;;;;;;;;5111482;28;20024;-68
2021/10/07 03:09:44;;;;;;;8.82;3.45;;;;;;;;;;5111340;28;20019;-68
2021/10/07 03:12:10;;;;;;;9.60;3.20;;;;;;;;;;5110819;28;20049;-68
2021/10/07 03:14:39;;;;;;;8.18;2.47;;;;;;;;;;5111061;28;20469;-68
2021/10/07 03:17:06;;;;;;;7.75;2.97;;;;;;;;;;5110510;28;20490;-68
2021/10/07 03:19:32;;;;;;;6.22;2.88;;;;;;;;;;5110864;28;20065;-68
2021/10/07 03:21:58;;;;;;;5.68;2.65;;;;;;;;;;5111482;28;20104;-68
2021/10/07 03:27:35;;;;;;;9.30;3.88;;;;;;;;;;5071562;28;20399;-69
2021/10/07 03:32:52;;;;;;;7.35;2.95;;;;;;;;;;5070442;28;20399;-68
2021/10/07 03:35:19;;;;;;;9.27;3.97;;;;;;;;;;5070839;28;20025;-68
2021/10/07 03:39:26;;;;;;;7.55;3.53;;;;;;;;;;5111050;27;20513;-68
2021/10/07 03:41:52;;;;;;;6.35;3.10;;;;;;;;;;5111410;28;20024;-68
2021/10/07 03:44:19;;;;;;;7.95;3.15;;;;;;;;;;5111254;28;20027;-67
2021/10/07 03:46:45;;;;;;;4.30;2.78;;;;;;;;;;5110771;28;20028;-67
2021/10/07 03:50:22;;;;;;;6.45;3.10;;;;;;;;;;5071107;28;20391;-67
2021/10/07 03:53:29;;;;;;;5.47;2.70;;;;;;;;;;5111275;27;21020;-69
2021/10/07 03:55:55;;;;;;;6.95;3.60;;;;;;;;;;5110184;28;20051;-67
2021/10/07 04:00:21;;;;;;;6.25;3.17;;;;;;;;;;5070333;28;20396;-68
2021/10/07 04:02:47;;;;;;;11.80;2.88;;;;;;;;;;5070727;28;20370;-69
2021/10/07 04:06:09;;;;;;;5.70;2.78;;;;;;;;;;5070789;28;20407;-66
2021/10/07 04:10:51;;;;;;;6.47;2.83;;;;;;;;;;5111434;27;20512;-69
2021/10/07 04:15:05;;;;;;;9.95;4.18;;;;;;;;;;5110909;27;20419;-68
2021/10/07 04:17:31;;;;;;;8.88;3.53;;;;;;;;;;5111317;28;20067;-67
2021/10/07 04:19:57;;;;;;;9.40;3.85;;;;;;;;;;5110743;28;20088;-67
2021/10/07 04:22:24;;;;;;;7.88;3.00;;;;;;;;;;5110728;28;20024;-69
2021/10/07 04:25:21;;;;;;;7.53;3.30;;;;;;;;;;5111976;27;20438;-67
2021/10/07 04:28:44;;;;;;;6.25;3.20;;;;;;;;;;5111067;27;20426;-67
2021/10/07 04:31:10;;;;;;;6.30;3.50;;;;;;;;;;5111214;28;20081;-69
2021/10/07 04:33:36;;;;;;;6.85;3.20;;;;;;;;;;5111155;28;20361;-68
2021/10/07 04:36:03;;;;;;;4.90;2.88;;;;;;;;;;5110857;28;20028;-68
2021/10/07 04:38:29;;;;;;;4.50;2.85;;;;;;;;;;5111138;28;20032;-68
2021/10/07 04:45:08;;;;;;;7.50;3.17;;;;;;;;;;5111207;27;20660;-67
2021/10/07 04:47:34;;;;;;;6.40;3.00;;;;;;;;;;5111156;28;20503;-67
2021/10/07 04:50:01;;;;;;;7.65;3.90;;;;;;;;;;5110872;28;20028;-70
2021/10/07 04:52:27;;;;;;;12.43;3.42;;;;;;;;;;5111403;28;20024;-70
2021/10/07 04:54:53;;;;;;;5.72;3.00;;;;;;;;;;5109895;28;20420;-70
2021/10/07 04:57:19;;;;;;;7.43;3.58;;;;;;;;;;5110766;28;20047;-70
2021/10/07 04:59:45;;;;;;;7.38;3.75;;;;;;;;;;5111080;28;20020;-70
2021/10/07 05:02:12;;;;;;;7.10;3.30;;;;;;;;;;5109729;28;20028;-71
2021/10/07 05:04:38;;;;;;;6.35;3.70;;;;;;;;;;5110535;28;20517;-68
2021/10/07 05:07:05;;;;;;;12.50;4.05;;;;;;;;;;5110762;28;20020;-68
2021/10/07 05:11:12;;;;;;;6.38;3.22;;;;;;;;;;5068325;28;20456;-67
2021/10/07 05:13:38;;;;;;;7.82;3.60;;;;;;;;;;5068827;28;20039;-67
2021/10/07 05:16:34;;;;;;;7.57;3.25;;;;;;;;;;5111254;27;20381;-69
2021/10/07 05:19:01;;;;;;;7.10;3.63;;;;;;;;;;5110739;28;20094;-66
2021/10/07 05:21:27;;;;;;;6.15;3.17;;;;;;;;;;5116214;28;20495;-70
2021/10/07 05:23:53;;;;;;;6.82;3.47;;;;;;;;;;5111676;28;20031;-75
2021/10/07 05:26:19;;;;;;;7.97;4.00;;;;;;;;;;5105477;28;20020;-77
2021/10/07 05:29:47;;;;;;;6.93;3.70;;;;;;;;;;5102647;27;20434;-70
2021/10/07 05:33:00;;;;;;;6.70;3.35;;;;;;;;;;5067814;28;20472;-68
2021/10/07 05:35:27;;;;;;;7.63;4.07;;;;;;;;;;5068607;28;20033;-69
2021/10/07 05:37:53;;;;;;;6.15;3.60;;;;;;;;;;5065062;28;20044;-70
2021/10/07 05:43:56;;;;;;;9.82;3.80;;;;;;;;;;5108325;27;20407;-71
2021/10/07 05:46:23;;;;;;;8.43;4.03;;;;;;;;;;5063580;28;20028;-69
2021/10/07 05:51:04;;;;;;;8.70;4.18;;;;;;;;;;5108351;27;20407;-69
2021/10/07 05:53:30;;;;;;;7.85;4.30;;;;;;;;;;5105412;28;20020;-69
2021/10/07 05:58:04;;;;;;;7.93;4.40;;;;;;;;;;5068104;28;21049;-72
2021/10/07 06:02:09;;;;;;;10.88;5.43;;;;;;;;;;5108346;27;20461;-69
2021/10/07 06:06:41;;;;;;;10.02;5.20;;;;;;;;;;5067736;28;20441;-67
2021/10/07 06:09:26;;;;;;;9.45;4.55;;;;;;;;;;5120996;27;20115;-70
2021/10/07 06:13:13;;;;;;;11.15;5.03;;;;;;;;;;5101041;27;20699;-69
2021/10/07 06:15:39;;;;;;;6.97;3.83;;;;;;;;;;5106645;28;20529;-67
2021/10/07 06:18:06;;;;;;;7.75;4.10;;;;;;;;;;5109769;28;20123;-66
2021/10/07 06:20:34;;;;;;;7.63;4.07;;;;;;;;;;5109922;28;20067;-67
2021/10/07 06:23:07;;;;;;;5.85;3.72;;;;;;;;;;5103419;28;20024;-66
2021/10/07 06:25:34;;;;;;;7.45;4.57;;;;;;;;;;5109220;28;20427;-66
2021/10/07 06:28:05;;;;;;;6.20;3.47;;;;;;;;;;5109440;28;20384;-69
2021/10/07 06:30:31;;;;;;;9.15;4.20;;;;;;;;;;5110396;28;20016;-67
2021/10/07 06:35:05;;;;;;;7.55;4.55;;;;;;;;;;5110391;27;20117;-66
2021/10/07 06:37:31;;;;;;;8.35;3.85;;;;;;;;;;5104302;28;20140;-68
2021/10/07 06:39:58;;;;;;;8.50;4.43;;;;;;;;;;5089429;28;20035;-69
2021/10/07 06:42:56;;;;;;;9.63;4.75;;;;;;;;;;5110266;27;20384;-66
2021/10/07 06:45:24;;;;;;;11.38;5.30;;;;;;;;;;5110340;28;20042;-67
2021/10/07 06:51:16;;;;;;;8.20;4.63;;;;;;;;;;5069494;28;20786;-65
2021/10/07 06:53:42;;;;;;;7.40;3.28;;;;;;;;;;5069476;28;20028;-64
2021/10/07 06:58:17;;;;;;;8.60;4.03;;;;;;;;;;5109108;27;20412;-64
2021/10/07 07:00:43;;;;;;;7.78;3.63;;;;;;;;;;5109317;28;20054;-64
2021/10/07 07:03:09;;;;;;;8.20;3.97;;;;;;;;;;5107005;28;20020;-63
2021/10/07 07:11:09;;;;;;;9.73;4.53;;;;;;;;;;5108580;27;20428;-65
2021/10/07 07:14:41;;;;;;;9.25;3.85;;;;;;;;;;5106420;27;20392;-65
2021/10/07 07:17:07;;;;;;;9.63;5.00;;;;;;;;;;5104231;28;20024;-64
2021/10/07 07:20:07;;;;;;;8.05;3.65;;;;;;;;;;5107529;27;20750;-67
2021/10/07 07:22:33;;;;;;;16.88;4.47;;;;;;;;;;5109239;28;20024;-68
2021/10/07 07:29:40;;;;;;;11.40;3.83;;;;;;;;;;5110395;27;20392;-65
2021/10/07 07:32:06;;;;;;;6.82;3.50;;;;;;;;;;5109356;28;20027;-65
2021/10/07 07:36:50;;;;;;;9.73;4.05;;;;;;;;;;5109720;27;20416;-65
2021/10/07 07:39:16;;;;;;;7.63;3.88;;;;;;;;;;5109581;28;20088;-64
2021/10/07 07:41:42;;;;;;;12.35;3.88;;;;;;;;;;5107985;28;20070;-64
2021/10/07 07:45:21;;;;;;;5.95;3.40;;;;;;;;;;5108404;27;20420;-67
2021/10/07 07:49:20;;;;;;;6.20;3.40;;;;;;;;;;5109044;27;20525;-67
2021/10/07 07:51:47;;;;;;;9.27;3.80;;;;;;;;;;5103383;28;20024;-66
2021/10/07 07:54:13;;;;;;;8.73;4.10;;;;;;;;;;5104681;28;20084;-69
2021/10/07 07:56:39;;;;;;;8.23;4.82;;;;;;;;;;5106272;28;20104;-67
2021/10/07 07:59:08;;;;;;;8.45;4.25;;;;;;;;;;5105860;28;20130;-66
2021/10/07 08:01:34;;;;;;;7.70;3.78;;;;;;;;;;5109177;28;20016;-66
2021/10/07 08:04:02;;;;;;;9.27;4.07;;;;;;;;;;5099525;28;20028;-69
2021/10/07 08:07:16;;;;;;;10.50;4.28;;;;;;;;;;5106831;27;20482;-67
2021/10/07 08:10:52;;;;;;;9.52;4.13;;;;;;;;;;5069727;28;20420;-64
2021/10/07 08:13:20;;;;;;;7.53;3.80;;;;;;;;;;5061288;28;20025;-68
2021/10/07 08:15:46;;;;;;;5.95;3.38;;;;;;;;;;5049480;28;20032;-67
2021/10/07 08:18:14;;;;;;;7.45;3.80;;;;;;;;;;5047659;28;20024;-67
2021/10/07 08:20:41;;;;;;;9.73;4.53;;;;;;;;;;5048324;28;20017;-66
2021/10/07 08:27:39;;;;;;;10.60;4.00;;;;;;;;;;5103725;27;20473;-68
2021/10/07 08:30:06;;;;;;;7.80;4.05;;;;;;;;;;5107014;28;20027;-67
2021/10/07 08:34:38;;;;;;;7.15;3.45;;;;;;;;;;5107603;27;20432;-67
2021/10/07 08:37:04;;;;;;;9.70;5.25;;;;;;;;;;5107795;28;20047;-66
2021/10/07 08:44:22;;;;;;;8.20;4.90;;;;;;;;;;5108353;27;20388;-67
2021/10/07 08:46:50;;;;;;;8.98;4.57;;;;;;;;;;5108012;28;20024;-67
2021/10/07 08:49:19;;;;;;;12.50;5.35;;;;;;;;;;5108714;28;20022;-67
2021/10/07 08:51:46;;;;;;;12.00;5.18;;;;;;;;;;5099251;28;20504;-70
2021/10/07 08:54:51;;;;;;;14.73;5.95;;;;;;;;;;5107772;27;20422;-70
2021/10/07 08:57:18;;;;;;;9.23;4.88;;;;;;;;;;5107214;28;20035;-70
2021/10/07 09:00:44;;;;;;;9.07;4.90;;;;;;;;;;5108992;27;20504;-72
2021/10/07 09:04:46;;;;;;;13.30;6.07;;;;;;;;;;5110592;27;20392;-72
2021/10/07 09:07:12;;;;;;;10.77;5.20;;;;;;;;;;5109604;28;20027;-70
2021/10/07 09:13:44;;;;;;;9.30;4.45;;;;;;;;;;5068784;28;20431;-69
2021/10/07 09:16:10;;;;;;;9.35;5.53;;;;;;;;;;5068059;28;20029;-69
2021/10/07 09:18:36;;;;;;;8.70;4.47;;;;;;;;;;5066847;28;20488;-69
2021/10/07 09:21:02;;;;;;;8.25;4.10;;;;;;;;;;5066166;28;20029;-70
2021/10/07 09:23:30;;;;;;;11.32;5.70;;;;;;;;;;5065584;28;20025;-70
2021/10/07 09:29:52;;;;;;;9.82;4.47;;;;;;;;;;5126981;27;20414;-69
2021/10/07 09:32:24;;;;;;;9.05;4.43;;;;;;;;;;5107226;27;20131;-69
2021/10/07 09:37:18;;;;;;;6.40;3.53;;;;;;;;;;5109915;27;20485;-66
2021/10/07 09:39:52;;;;;;;6.00;3.45;;;;;;;;;;5106488;28;20024;-68
2021/10/07 09:45:05;;;;;;;6.07;3.60;;;;;;;;;;5064223;28;20870;-68
2021/10/07 09:47:32;;;;;;;7.82;3.42;;;;;;;;;;5045863;28;20124;-68
2021/10/07 09:50:11;;;;;;;8.25;4.15;;;;;;;;;;5048030;28;20442;-68
2021/10/07 09:52:40;;;;;;;6.78;3.45;;;;;;;;;;5046312;28;20017;-67
2021/10/07 09:55:34;;;;;;;10.25;4.55;;;;;;;;;;5061065;28;20422;-67
2021/10/07 09:58:02;;;;;;;8.40;4.40;;;;;;;;;;5048702;28;20478;-67
2021/10/07 10:00:30;;;;;;;8.85;3.85;;;;;;;;;;5048921;28;20172;-70
2021/10/07 10:03:53;;;;;;;7.72;3.15;;;;;;;;;;5109650;27;20388;-69
2021/10/07 10:07:37;;;;;;;6.57;3.35;;;;;;;;;;5109959;27;20470;-67
2021/10/07 10:12:00;;;;;;;5.78;3.67;;;;;;;;;;5110447;27;20746;-68
2021/10/07 10:14:26;;;;;;;6.90;3.65;;;;;;;;;;5109889;28;20043;-67
2021/10/07 10:16:52;;;;;;;7.68;3.58;;;;;;;;;;5110349;28;20499;-67
2021/10/07 10:19:19;;;;;;;6.93;3.42;;;;;;;;;;5109881;28;20085;-67
2021/10/07 10:21:45;;;;;;;7.78;3.78;;;;;;;;;;5110118;28;20413;-68
2021/10/07 10:24:12;;;;;;;7.35;3.22;;;;;;;;;;5110229;28;20404;-68
2021/10/07 10:26:38;;;;;;;8.32;3.78;;;;;;;;;;5117104;28;20027;-67
2021/10/07 10:29:18;;;;;;;8.38;3.75;;;;;;;;;;5129760;28;20016;-68
2021/10/07 10:33:02;;;;;;;7.95;3.92;;;;;;;;;;5067098;28;20420;-68
2021/10/07 10:35:32;;;;;;;7.95;4.20;;;;;;;;;;5065976;28;20587;-68
2021/10/07 10:37:59;;;;;;;9.48;3.50;;;;;;;;;;5064772;28;20448;-68
2021/10/07 10:40:25;;;;;;;8.15;4.05;;;;;;;;;;5060499;28;20048;-66
2021/10/07 10:43:18;;;;;;;8.35;4.45;;;;;;;;;;5067230;28;20112;-70
2021/10/07 10:47:06;;;;;;;8.27;4.22;;;;;;;;;;5107339;27;20400;-67
2021/10/07 10:51:01;;;;;;;8.50;4.00;;;;;;;;;;5068753;28;20482;-68
2021/10/07 10:54:02;;;;;;;8.20;4.25;;;;;;;;;;5108412;27;20416;-70
2021/10/07 10:56:42;;;;;;;8.75;4.15;;;;;;;;;;5088869;28;20107;-66
2021/10/07 10:59:22;;;;;;;7.07;3.53;;;;;;;;;;5109588;28;20028;-68
2021/10/07 11:02:21;;;;;;;6.57;3.85;;;;;;;;;;5109835;28;20077;-68
2021/10/07 11:04:48;;;;;;;8.52;4.28;;;;;;;;;;5060174;28;20033;-67
2021/10/07 11:07:30;;;;;;;7.18;4.13;;;;;;;;;;5089541;28;20041;-68
2021/10/07 11:10:50;;;;;;;9.52;4.38;;;;;;;;;;5110717;27;20419;-69
2021/10/07 11:13:18;;;;;;;11.55;4.75;;;;;;;;;;5107305;28;20046;-69
2021/10/07 11:15:54;;;;;;;7.13;4.57;;;;;;;;;;5105425;28;20419;-69
2021/10/07 11:18:21;;;;;;;10.95;4.97;;;;;;;;;;5088224;28;20055;-68
2021/10/07 11:21:42;;;;;;;9.20;4.55;;;;;;;;;;5069203;28;20466;-69
2021/10/07 11:24:15;;;;;;;9.32;4.90;;;;;;;;;;5066734;28;20054;-69
2021/10/07 11:26:41;;;;;;;10.27;4.95;;;;;;;;;;5067284;28;20128;-69
2021/10/07 11:29:09;;;;;;;9.63;4.93;;;;;;;;;;5070329;28;20066;-67
2021/10/07 11:31:44;;;;;;;9.27;4.35;;;;;;;;;;5069476;28;20023;-70
2021/10/07 11:34:10;;;;;;;7.25;3.20;;;;;;;;;;5067883;28;20476;-68
2021/10/07 11:37:06;;;;;;;7.22;3.70;;;;;;;;;;5067267;28;20399;-69
2021/10/07 11:39:32;;;;;;;7.55;3.42;;;;;;;;;;5067765;28;20028;-69
2021/10/07 11:41:58;;;;;;;7.20;3.72;;;;;;;;;;5066659;28;20025;-67
2021/10/07 11:45:45;;;;;;;5.93;2.90;;;;;;;;;;5130328;27;20335;-68
2021/10/07 11:48:51;;;;;;;10.85;3.70;;;;;;;;;;5109958;27;20385;-67
2021/10/07 11:51:41;;;;;;;7.55;3.60;;;;;;;;;;5068967;28;20387;-68
2021/10/07 11:54:07;;;;;;;6.38;3.08;;;;;;;;;;5068658;28;20083;-68
2021/10/07 11:56:35;;;;;;;10.73;3.97;;;;;;;;;;5069822;28;20035;-68
2021/10/07 11:59:03;;;;;;;9.70;3.60;;;;;;;;;;5068621;28;20032;-68
2021/10/07 12:01:31;;;;;;;7.22;3.33;;;;;;;;;;5067914;28;20032;-68
2021/10/07 12:03:58;;;;;;;9.30;3.80;;;;;;;;;;5065731;28;20025;-69
2021/10/07 12:07:42;;;;;;;7.20;3.33;;;;;;;;;;5108657;27;20396;-69
2021/10/07 12:10:35;;;;;;;7.07;3.95;;;;;;;;;;5067924;28;20442;-69
2021/10/07 12:13:06;;;;;;;7.13;3.20;;;;;;;;;;5067331;28;20033;-68
2021/10/07 12:15:54;;;;;;;12.90;4.30;;;;;;;;;;5109437;27;20424;-68
2021/10/07 12:19:42;;;;;;;14.30;5.28;;;;;;;;;;5068758;28;20416;-69
2021/10/07 12:23:18;;;;;;;9.02;4.00;;;;;;;;;;5110670;27;20380;-69
2021/10/07 12:25:44;;;;;;;8.95;4.30;;;;;;;;;;5126108;28;20459;-68
2021/10/07 12:32:02;;;;;;;8.65;4.07;;;;;;;;;;5110545;27;20450;-68
2021/10/07 12:34:30;;;;;;;9.25;3.55;;;;;;;;;;5110363;28;20432;-68
2021/10/07 12:39:05;;;;;;;9.50;4.57;;;;;;;;;;5069572;28;20462;-69
2021/10/07 12:41:33;;;;;;;8.02;3.88;;;;;;;;;;5067141;28;20025;-68
2021/10/07 12:43:59;;;;;;;6.55;3.70;;;;;;;;;;5069128;28;20020;-67
2021/10/07 12:46:26;;;;;;;7.65;4.00;;;;;;;;;;5069489;28;20036;-70
2021/10/07 12:49:31;;;;;;;7.18;3.63;;;;;;;;;;5070290;28;20400;-67
2021/10/07 12:53:17;;;;;;;7.78;3.72;;;;;;;;;;5070464;28;20412;-70
2021/10/07 12:56:50;;;;;;;7.50;4.03;;;;;;;;;;5109479;27;20517;-70
2021/10/07 13:01:45;;;;;;;7.78;4.18;;;;;;;;;;5130340;27;20318;-70
2021/10/07 13:04:12;;;;;;;9.13;4.47;;;;;;;;;;5109613;28;20032;-70
2021/10/07 13:06:38;;;;;;;9.85;4.78;;;;;;;;;;5110392;28;20402;-69
2021/10/07 13:09:44;;;;;;;8.52;4.20;;;;;;;;;;5110274;27;20895;-68
2021/10/07 13:15:06;;;;;;;9.43;4.93;;;;;;;;;;5110575;27;20314;-70
2021/10/07 13:17:32;;;;;;;8.65;5.22;;;;;;;;;;5110956;28;20472;-69
2021/10/07 13:20:12;;;;;;;8.07;5.22;;;;;;;;;;5107969;27;20392;-70
2021/10/07 13:22:38;;;;;;;14.18;5.70;;;;;;;;;;5110402;28;20024;-71
2021/10/07 13:28:01;;;;;;;8.35;5.28;;;;;;;;;;5111340;27;20416;-71
2021/10/07 13:33:45;;;;;;;13.35;7.65;;;;;;;;;;5110986;27;20416;-71
2021/10/07 13:36:11;;;;;;;9.38;5.97;;;;;;;;;;5108438;28;20434;-71
2021/10/07 13:38:37;;;;;;;14.60;6.25;;;;;;;;;;5109733;28;20026;-69
2021/10/07 13:41:04;;;;;;;33.03;18.20;;;;;;;;;;5109549;28;20552;-70
2021/10/07 13:47:31;;;;;;;39.08;20.15;;;;;;;;;;5110842;27;20416;-70
2021/10/07 13:49:57;;;;;;;11.02;6.05;;;;;;;;;;5111013;28;20115;-71
2021/10/07 13:54:09;;;;;;;12.00;5.97;;;;;;;;;;5111881;27;20500;-70
2021/10/07 13:59:24;;;;;;;10.00;4.03;;;;;;;;;;5110830;27;20757;-72
2021/10/07 14:02:52;;;;;;;8.15;4.78;;;;;;;;;;5112119;27;20501;-71
2021/10/07 14:05:46;;;;;;;10.32;4.82;;;;;;;;;;5070735;28;20787;-72
2021/10/07 14:08:13;;;;;;;12.70;6.45;;;;;;;;;;5070705;28;20040;-72
2021/10/07 14:10:40;;;;;;;10.88;5.13;;;;;;;;;;5070607;28;20096;-69
2021/10/07 14:13:06;;;;;;;8.75;5.38;;;;;;;;;;5070248;28;20078;-71
2021/10/07 14:15:32;;;;;;;9.07;4.38;;;;;;;;;;5070552;28;20103;-70
2021/10/07 14:19:52;;;;;;;8.93;4.82;;;;;;;;;;5070639;28;20466;-70
2021/10/07 14:22:44;;;;;;;11.65;5.32;;;;;;;;;;5111462;27;20499;-71
2021/10/07 14:27:23;;;;;;;12.13;6.30;;;;;;;;;;5070494;28;20403;-71
2021/10/07 14:29:51;;;;;;;10.85;5.75;;;;;;;;;;5070758;28;20027;-71
2021/10/07 14:32:18;;;;;;;10.20;6.45;;;;;;;;;;5069217;28;20055;-71
2021/10/07 14:34:44;;;;;;;14.63;7.97;;;;;;;;;;5069308;28;20037;-72
2021/10/07 14:37:11;;;;;;;16.58;7.90;;;;;;;;;;5069038;28;20407;-72
2021/10/07 14:41:06;;;;;;;10.10;5.88;;;;;;;;;;5110737;27;20422;-72
2021/10/07 14:44:57;;;;;;;10.82;5.90;;;;;;;;;;5112080;27;20400;-70
2021/10/07 14:47:24;;;;;;;16.08;6.15;;;;;;;;;;5110979;28;20080;-71
2021/10/07 14:51:23;;;;;;;9.90;5.70;;;;;;;;;;5071131;28;20414;-72
2021/10/07 14:53:49;;;;;;;9.02;5.07;;;;;;;;;;5070486;28;20052;-72
2021/10/07 14:57:18;;;;;;;11.13;5.15;;;;;;;;;;5111938;27;20389;-71
2021/10/07 14:59:44;;;;;;;10.93;5.53;;;;;;;;;;5111622;28;20019;-70
2021/10/07 15:02:12;;;;;;;8.95;5.13;;;;;;;;;;5109530;28;20023;-71
2021/10/07 15:04:38;;;;;;;8.32;5.25;;;;;;;;;;5111313;28;20024;-73
2021/10/07 15:08:13;;;;;;;9.20;4.90;;;;;;;;;;5070298;28;20391;-72
2021/10/07 15:12:27;;;;;;;12.02;6.60;;;;;;;;;;5111961;27;20393;-72
2021/10/07 15:15:42;;;;;;;11.15;5.63;;;;;;;;;;5070623;28;20401;-71
2021/10/07 15:19:01;;;;;;;9.35;5.35;;;;;;;;;;5071193;28;20407;-71
2021/10/07 15:21:41;;;;;;;11.75;5.43;;;;;;;;;;5111291;27;20384;-71
2021/10/07 15:25:05;;;;;;;10.85;5.03;;;;;;;;;;5111677;27;20473;-72
2021/10/07 15:27:31;;;;;;;8.38;4.60;;;;;;;;;;5111416;28;20024;-71
2021/10/07 15:30:29;;;;;;;9.88;4.25;;;;;;;;;;5070367;28;20431;-72
2021/10/07 15:32:55;;;;;;;9.82;4.10;;;;;;;;;;5071129;28;20025;-72
2021/10/07 15:35:57;;;;;;;9.77;3.53;;;;;;;;;;5111559;27;20400;-72
2021/10/07 15:38:24;;;;;;;9.90;4.80;;;;;;;;;;5111347;28;20414;-72
2021/10/07 15:42:52;;;;;;;9.32;4.55;;;;;;;;;;5131770;27;20854;-71
2021/10/07 15:46:40;;;;;;;11.30;4.40;;;;;;;;;;5111550;27;20416;-72
2021/10/07 15:52:15;;;;;;;10.65;3.60;;;;;;;;;;5132064;27;20305;-72
2021/10/07 15:54:41;;;;;;;12.13;4.22;;;;;;;;;;5093013;28;20461;-72
2021/10/07 15:57:07;;;;;;;12.80;5.95;;;;;;;;;;5110945;28;20422;-71
2021/10/07 15:59:34;;;;;;;11.13;5.38;;;;;;;;;;5092997;28;20020;-71
2021/10/07 16:02:35;;;;;;;7.78;4.32;;;;;;;;;;5071074;28;20940;-71
2021/10/07 16:05:01;;;;;;;9.70;4.57;;;;;;;;;;5070159;28;20071;-71
2021/10/07 16:07:27;;;;;;;8.15;4.32;;;;;;;;;;5069275;28;20025;-71
2021/10/07 16:09:53;;;;;;;8.27;4.22;;;;;;;;;;5070916;28;20428;-71
2021/10/07 16:13:05;;;;;;;9.75;4.13;;;;;;;;;;5090633;27;20476;-70
2021/10/07 16:17:00;;;;;;;10.15;4.97;;;;;;;;;;5070891;28;20430;-71
2021/10/07 16:22:30;;;;;;;10.02;4.38;;;;;;;;;;5070748;28;20130;-71
2021/10/07 16:24:56;;;;;;;6.00;3.50;;;;;;;;;;5052184;28;20025;-71
2021/10/07 16:28:30;;;;;;;7.47;4.03;;;;;;;;;;5071032;28;20810;-71
2021/10/07 16:30:58;;;;;;;7.75;3.70;;;;;;;;;;5070671;28;20036;-71
2021/10/07 16:35:37;;;;;;;9.52;4.50;;;;;;;;;;5111378;27;20484;-72
2021/10/07 16:40:04;;;;;;;10.25;4.80;;;;;;;;;;5111175;27;20461;-72
2021/10/07 16:43:51;;;;;;;8.43;4.85;;;;;;;;;;5111506;27;20811;-72
2021/10/07 16:46:17;;;;;;;8.48;4.50;;;;;;;;;;5110988;28;20028;-72
2021/10/07 16:48:43;;;;;;;8.52;4.55;;;;;;;;;;5111238;28;20024;-71
2021/10/07 16:51:10;;;;;;;13.13;6.55;;;;;;;;;;5111445;28;20024;-72
2021/10/07 16:53:37;;;;;;;13.73;6.93;;;;;;;;;;5110712;28;20027;-72
2021/10/07 16:56:12;;;;;;;16.00;8.40;;;;;;;;;;5111153;28;20479;-71
2021/10/07 16:59:00;;;;;;;12.18;6.85;;;;;;;;;;5070899;28;20392;-72
2021/10/07 17:01:27;;;;;;;11.52;6.68;;;;;;;;;;5070443;28;20055;-72
2021/10/07 17:05:47;;;;;;;15.05;7.30;;;;;;;;;;5111744;27;20424;-71
2021/10/07 17:08:13;;;;;;;13.63;7.40;;;;;;;;;;5110929;28;20035;-71
2021/10/07 17:10:39;;;;;;;10.75;6.32;;;;;;;;;;5111279;28;20047;-71
2021/10/07 17:13:05;;;;;;;9.45;5.40;;;;;;;;;;5109818;28;20531;-71
2021/10/07 17:19:08;;;;;;;16.75;6.40;;;;;;;;;;5112006;27;20466;-70
2021/10/07 17:23:27;;;;;;;19.30;10.45;;;;;;;;;;5070636;28;20437;-71
2021/10/07 17:25:54;;;;;;;15.40;8.38;;;;;;;;;;5070701;28;20033;-72
2021/10/07 17:31:42;;;;;;;28.10;23.40;;;;;;;;;;5111530;27;20908;-72
2021/10/07 17:34:08;;;;;;;51.72;46.17;;;;;;;;;;5111479;28;20031;-71
2021/10/07 17:37:57;;;;;;;29.35;21.65;;;;;;;;;;5111598;27;20502;-71
2021/10/07 17:40:59;;;;;;;16.90;11.15;;;;;;;;;;5131973;27;20309;-71
2021/10/07 17:46:24;;;;;;;31.17;15.55;;;;;;;;;;5111791;27;20508;-71
2021/10/07 17:48:50;;;;;;;17.05;8.50;;;;;;;;;;5110846;28;20020;-69
2021/10/07 17:51:17;;;;;;;23.50;11.48;;;;;;;;;;5110882;28;20028;-70
2021/10/07 17:55:25;;;;;;;34.95;16.38;;;;;;;;;;5111282;27;20470;-69
2021/10/07 17:57:52;;;;;;;17.58;8.68;;;;;;;;;;5110832;28;20028;-69
2021/10/07 18:02:27;;;;;;;13.38;6.40;;;;;;;;;;5131625;27;20305;-69
2021/10/07 18:07:46;;;;;;;11.35;6.03;;;;;;;;;;5031111;28;20390;-71
2021/10/07 18:10:14;;;;;;;14.07;6.50;;;;;;;;;;5031014;28;20029;-71
2021/10/07 18:12:41;;;;;;;11.20;7.47;;;;;;;;;;5029111;28;20558;-70
2021/10/07 18:16:24;;;;;;;14.65;8.52;;;;;;;;;;5111309;27;20908;-70
2021/10/07 18:18:51;;;;;;;10.40;6.15;;;;;;;;;;5110832;28;20032;-71
2021/10/07 18:21:18;;;;;;;15.13;6.07;;;;;;;;;;5111237;28;20028;-70
2021/10/07 18:23:45;;;;;;;10.55;5.65;;;;;;;;;;5111170;28;20055;-70
2021/10/07 18:26:12;;;;;;;9.85;6.03;;;;;;;;;;5110864;28;20031;-71
2021/10/07 18:28:39;;;;;;;11.48;6.43;;;;;;;;;;5111008;28;20058;-71
2021/10/07 18:34:02;;;;;;;10.60;5.80;;;;;;;;;;5111292;27;20814;-70
2021/10/07 18:36:40;;;;;;;9.93;5.75;;;;;;;;;;5111248;27;20449;-71
2021/10/07 18:39:07;;;;;;;10.00;6.18;;;;;;;;;;5110955;28;20101;-71
2021/10/07 18:43:29;;;;;;;9.13;5.47;;;;;;;;;;5111622;27;20415;-70
2021/10/07 18:48:44;;;;;;;10.45;5.43;;;;;;;;;;5071054;28;20423;-70
2021/10/07 18:51:11;;;;;;;24.63;11.98;;;;;;;;;;5053094;28;20436;-71
2021/10/07 18:55:20;;;;;;;24.45;10.85;;;;;;;;;;5111734;27;20411;-70
2021/10/07 18:57:46;;;;;;;34.10;17.23;;;;;;;;;;5111348;28;20024;-71
2021/10/07 19:00:13;;;;;;;17.95;8.77;;;;;;;;;;5110885;28;20414;-70
2021/10/07 19:04:22;;;;;;;12.80;6.43;;;;;;;;;;5111469;27;20900;-69